Time;durP1;ratioP1;P1;durP2;ratioP2;P2;SDS_P1;SDS_P2;PMS_P1;PMS_P2;Temp;Humidity;BMP_temperature;BMP_pressure;BME280_temperature;BME280_humidity;BME280_pressure;Samples;Min_cycle;Max_cycle;Signal;HPM_P1;HPM_P2
2021/04/20 04:26:41;;;;;;;19.92;13.70;;;14.50;58.70;;;;;;6097707;22;1540684;-79
2021/04/20 04:29:10;;;;;;;16.48;14.70;;;14.50;58.80;;;;;;6127285;23;20404;-77
2021/04/20 04:31:41;;;;;;;21.23;12.80;;;14.30;58.90;;;;;;6127943;23;20009;-79
2021/04/20 04:34:09;;;;;;;15.43;11.55;;;14.40;59.60;;;;;;6137144;23;20009;-78
2021/04/20 04:36:35;;;;;;;16.50;11.00;;;14.50;59.70;;;;;;6137988;23;20009;-76
2021/04/20 04:39:04;;;;;;;12.07;9.10;;;14.70;59.70;;;;;;6128799;23;20403;-78
2021/04/20 04:41:30;;;;;;;15.90;9.45;;;15.00;59.40;;;;;;6128355;23;20120;-73
2021/04/20 04:43:56;;;;;;;13.13;8.15;;;15.30;59.10;;;;;;6138281;23;20417;-78
2021/04/20 04:46:22;;;;;;;12.18;8.02;;;15.60;59.00;;;;;;6138336;23;20006;-77
2021/04/20 04:48:48;;;;;;;11.95;7.60;;;15.90;58.80;;;;;;6137081;23;20009;-78
2021/04/20 04:51:17;;;;;;;11.50;7.60;;;15.80;58.60;;;;;;6128606;23;20349;-79
2021/04/20 04:54:03;;;;;;;13.57;8.05;;;16.10;58.90;;;;;;6126254;23;20017;-79
2021/04/20 04:56:43;;;;;;;10.55;7.95;;;16.20;58.50;;;;;;6103849;23;20033;-78
2021/04/20 04:59:32;;;;;;;11.85;7.07;;;16.30;58.60;;;;;;6123686;23;20041;-69
2021/04/20 05:01:58;;;;;;;13.50;8.02;;;16.40;58.80;;;;;;6137965;23;20093;-80
2021/04/20 05:04:30;;;;;;;10.35;6.78;;;16.50;58.80;;;;;;6137856;23;20083;-79
2021/04/20 05:06:59;;;;;;;11.10;7.15;;;16.20;58.60;;;;;;6127696;23;20009;-77
2021/04/20 05:20:30;;;;;;;12.77;5.50;;;16.70;61.70;;;;;;6097406;23;20021;-80
2021/04/20 05:49:46;;;;;;;14.68;5.53;;;17.60;60.60;;;;;;6129714;23;20364;-81
2021/04/20 05:52:15;;;;;;;12.95;4.75;;;17.70;60.60;;;;;;6128731;23;20033;-85
2021/04/20 05:54:44;;;;;;;14.25;4.28;;;17.70;60.50;;;;;;6138295;23;20101;-80
2021/04/20 05:57:10;;;;;;;14.32;4.72;;;17.80;60.40;;;;;;6139451;23;20033;-78
2021/04/20 05:59:36;;;;;;;13.65;5.22;;;17.80;60.40;;;;;;6128675;23;20006;-81
2021/04/20 06:02:02;;;;;;;11.98;5.20;;;17.90;60.30;;;;;;6128463;23;20025;-80
2021/04/20 06:30:26;;;;;;;14.98;5.60;;;17.80;59.20;;;;;;5817589;24;20405;-76
2021/04/20 06:32:58;;;;;;;11.77;5.30;;;17.90;59.60;;;;;;5800277;24;20019;-77
2021/04/20 06:35:24;;;;;;;14.60;5.47;;;17.90;58.80;;;;;;5875551;24;20407;-77
2021/04/20 06:37:51;;;;;;;12.40;5.70;;;18.00;58.70;;;;;;5920590;23;20020;-76
2021/04/20 06:40:37;;;;;;;10.80;5.15;;;18.00;58.90;;;;;;6031822;23;20014;-76
2021/04/20 06:43:05;;;;;;;11.02;4.93;;;18.00;58.90;;;;;;6103586;23;20025;-77
2021/04/20 06:46:01;;;;;;;11.20;4.78;;;18.10;59.00;;;;;;6103227;23;20053;-77
2021/04/20 06:48:37;;;;;;;12.85;4.70;;;18.10;58.80;;;;;;6139669;23;20024;-76
2021/04/20 06:51:18;;;;;;;13.30;5.63;;;18.20;58.80;;;;;;6138032;23;20085;-77
2021/04/20 06:53:50;;;;;;;10.60;5.13;;;18.10;58.80;;;;;;6103555;23;20084;-76
2021/04/20 06:56:32;;;;;;;13.68;5.10;;;18.20;58.80;;;;;;6127954;23;20020;-80
2021/04/20 06:59:11;;;;;;;9.73;5.82;;;18.20;59.10;;;;;;6127672;23;20020;-76
2021/04/20 07:01:47;;;;;;;9.75;5.15;;;18.20;58.80;;;;;;6103558;23;20013;-76
2021/04/20 07:04:37;;;;;;;11.63;5.78;;;18.20;59.10;;;;;;6127566;23;20022;-76
2021/04/20 07:07:09;;;;;;;9.07;5.13;;;18.20;59.10;;;;;;6102348;23;20083;-76
2021/04/20 07:09:42;;;;;;;9.35;4.57;;;18.20;59.10;;;;;;6128140;23;20088;-76
2021/04/20 07:12:15;;;;;;;8.48;4.80;;;18.20;59.20;;;;;;6139021;23;20423;-75
2021/04/20 07:14:54;;;;;;;10.07;5.25;;;18.20;59.40;;;;;;6128208;23;20037;-76
2021/04/20 07:18:08;;;;;;;10.70;4.78;;;18.10;59.30;;;;;;6129023;23;20014;-76
2021/04/20 07:21:01;;;;;;;9.25;4.50;;;18.20;59.40;;;;;;6096339;23;20021;-76
2021/04/20 07:23:45;;;;;;;9.38;4.55;;;18.10;59.40;;;;;;6138519;23;20527;-75
2021/04/20 07:26:14;;;;;;;;;;;18.10;59.60;;;;;;6128327;23;20041;-76
2021/04/20 07:29:20;;;;;;;11.60;4.97;;;18.10;59.60;;;;;;6128965;23;19994;-77
2021/04/20 07:31:54;;;;;;;6.60;4.45;;;18.10;59.70;;;;;;6137556;23;20017;-74
2021/04/20 07:34:48;;;;;;;16.85;11.20;;;18.10;59.70;;;;;;6128593;23;20041;-76
2021/04/20 07:41:14;;;;;;;17.45;11.23;;;17.80;58.70;;;;;;6120271;23;20360;-75
2021/04/20 07:43:59;;;;;;;19.52;13.60;;;17.40;59.70;;;;;;6127468;23;20021;-76
2021/04/20 07:46:47;;;;;;;12.70;10.07;;;17.10;59.70;;;;;;6128330;23;20025;-77
2021/04/20 07:49:16;;;;;;;15.43;9.70;;;17.00;62.50;;;;;;6138327;23;20020;-77
2021/04/20 07:52:05;;;;;;;14.95;9.32;;;17.00;62.30;;;;;;6128776;23;20037;-76
2021/04/20 07:54:31;;;;;;;11.10;9.15;;;17.00;63.20;;;;;;6138697;23;20010;-75
2021/04/20 07:57:09;;;;;;;13.23;8.18;;;17.00;63.80;;;;;;6128467;23;20014;-76
2021/04/20 08:00:06;;;;;;;12.40;8.57;;;17.00;64.00;;;;;;6127422;23;20006;-74
2021/04/20 08:03:03;;;;;;;13.65;9.20;;;17.00;64.00;;;;;;6119741;23;20014;-80
2021/04/20 08:05:36;;;;;;;13.38;8.80;;;17.00;64.00;;;;;;6128950;23;20343;-76
2021/04/20 08:08:12;;;;;;;13.13;8.23;;;17.00;64.60;;;;;;6138655;23;20017;-75
2021/04/20 08:10:58;;;;;;;12.32;9.68;;;17.10;64.60;;;;;;6137954;23;20017;-74
2021/04/20 08:13:35;;;;;;;16.60;10.98;;;17.20;64.30;;;;;;6138340;23;20021;-74
2021/04/20 08:16:08;;;;;;;16.35;10.55;;;17.10;63.90;;;;;;6139278;23;20088;-76
2021/04/20 08:18:44;;;;;;;17.33;9.07;;;17.20;64.10;;;;;;6138475;23;20009;-81
2021/04/20 08:21:12;;;;;;;17.27;9.85;;;17.20;63.80;;;;;;6137830;23;20468;-72
2021/04/20 08:23:46;;;;;;;18.45;15.02;;;17.20;63.40;;;;;;6138268;23;20017;-73
2021/04/20 08:26:19;;;;;;;23.40;15.25;;;17.30;63.30;;;;;;6138288;23;20009;-73
2021/04/20 08:28:49;;;;;;;20.20;14.10;;;17.30;62.90;;;;;;6138367;23;20013;-74
2021/04/20 08:31:55;;;;;;;16.85;14.45;;;17.30;62.70;;;;;;6139406;23;20038;-73
2021/04/20 08:34:32;;;;;;;20.75;16.98;;;17.30;62.10;;;;;;6089525;23;20029;-74
2021/04/20 08:37:07;;;;;;;22.45;15.32;;;17.30;62.20;;;;;;6137706;23;20022;-72
2021/04/20 08:39:46;;;;;;;17.17;14.77;;;17.30;62.10;;;;;;6137888;23;20014;-72
2021/04/20 08:42:41;;;;;;;21.85;15.45;;;17.30;62.00;;;;;;6126668;23;20014;-74
2021/04/20 08:45:09;;;;;;;20.25;15.18;;;17.30;61.80;;;;;;6137953;23;20010;-73
2021/04/20 08:48:01;;;;;;;19.15;15.10;;;17.30;61.80;;;;;;6138897;23;20010;-72
2021/04/20 08:50:30;;;;;;;22.10;16.35;;;17.30;61.50;;;;;;6138884;23;20014;-74
2021/04/20 08:53:19;;;;;;;19.83;14.45;;;17.30;61.50;;;;;;6138414;23;20010;-73
2021/04/20 08:55:57;;;;;;;22.27;15.20;;;17.30;61.40;;;;;;6137406;23;20025;-73
2021/04/20 08:58:48;;;;;;;20.67;14.77;;;17.30;61.60;;;;;;6137606;23;20021;-72
2021/04/20 09:01:33;;;;;;;18.35;14.18;;;17.30;62.10;;;;;;6137247;23;20045;-72
2021/04/20 09:04:35;;;;;;;17.90;14.00;;;17.30;62.10;;;;;;6138072;23;20085;-75
2021/04/20 09:07:38;;;;;;;19.17;14.50;;;17.30;62.20;;;;;;6138059;23;20009;-75
2021/04/20 09:10:15;;;;;;;18.92;14.15;;;17.30;63.00;;;;;;6136550;23;20042;-75
2021/04/20 09:12:44;;;;;;;18.27;12.90;;;17.30;63.40;;;;;;6138053;23;20069;-75
2021/04/20 09:15:12;;;;;;;18.65;11.93;;;17.30;63.30;;;;;;6137051;23;20061;-75
2021/04/20 09:18:05;;;;;;;16.10;11.13;;;17.30;63.20;;;;;;6137657;23;20269;-73
2021/04/20 09:20:39;;;;;;;20.35;11.13;;;17.40;63.70;;;;;;6122700;23;20308;-75
2021/04/20 09:23:20;;;;;;;13.35;9.48;;;17.40;63.20;;;;;;6137974;23;20084;-79
2021/04/20 09:26:01;;;;;;;18.83;10.60;;;17.40;63.60;;;;;;6137926;23;20014;-74
2021/04/20 09:28:32;;;;;;;17.10;10.32;;;17.40;63.80;;;;;;6127923;23;20064;-78
2021/04/20 09:31:22;;;;;;;19.63;9.90;;;17.40;64.10;;;;;;6127056;23;20013;-76
2021/04/20 09:33:52;;;;;;;17.77;9.30;;;17.40;64.80;;;;;;6127078;23;20408;-76
2021/04/20 09:36:21;;;;;;;19.13;9.55;;;17.40;64.70;;;;;;6137666;23;20009;-76
2021/04/20 09:38:50;;;;;;;16.13;11.13;;;17.40;63.90;;;;;;6127909;23;20014;-76
2021/04/20 09:41:22;;;;;;;18.15;10.45;;;17.40;64.00;;;;;;6127952;23;20014;-77
2021/04/20 09:44:15;;;;;;;17.20;8.93;;;17.40;63.80;;;;;;6137729;23;20014;-76
2021/04/20 09:46:47;;;;;;;17.45;8.70;;;17.40;64.20;;;;;;6132595;23;20014;-76
2021/04/20 09:49:17;;;;;;;12.70;7.97;;;17.40;63.90;;;;;;6127763;23;20311;-73
2021/04/20 09:51:50;;;;;;;13.82;8.10;;;17.40;63.90;;;;;;6137613;23;20014;-76
2021/04/20 09:54:40;;;;;;;13.30;8.25;;;17.40;63.70;;;;;;6138524;23;20028;-77
2021/04/20 09:57:08;;;;;;;16.50;8.65;;;17.40;63.50;;;;;;6137430;23;20076;-76
2021/04/20 09:59:57;;;;;;;21.75;8.70;;;17.30;63.30;;;;;;6127832;23;20085;-77
2021/04/20 10:02:45;;;;;;;10.82;6.63;;;17.40;63.50;;;;;;6137901;23;20024;-77
2021/04/20 10:05:20;;;;;;;11.30;6.88;;;17.40;63.50;;;;;;6137244;23;20446;-77
2021/04/20 10:08:03;;;;;;;12.65;7.28;;;17.40;63.50;;;;;;6138442;23;20028;-75
2021/04/20 10:10:41;;;;;;;11.82;8.23;;;17.40;63.00;;;;;;6138741;23;20010;-77
2021/04/20 10:13:27;;;;;;;13.30;7.90;;;17.30;62.60;;;;;;6128805;23;20020;-77
2021/04/20 10:16:23;;;;;;;10.50;7.60;;;17.30;62.70;;;;;;6138896;23;20352;-77
2021/04/20 10:19:08;;;;;;;15.63;7.63;;;17.30;62.30;;;;;;6128455;23;20013;-79
2021/04/20 10:21:49;;;;;;;11.30;6.30;;;17.40;62.10;;;;;;6138771;23;20024;-78
2021/04/20 10:24:23;;;;;;;10.32;6.57;;;17.40;61.90;;;;;;6127756;23;20073;-78
2021/04/20 10:27:10;;;;;;;10.75;6.85;;;17.30;61.00;;;;;;6153077;23;20018;-77
2021/04/20 10:29:57;;;;;;;10.85;6.78;;;17.40;61.30;;;;;;6129386;23;20009;-79
2021/04/20 10:32:28;;;;;;;11.80;6.07;;;17.40;61.20;;;;;;6138476;23;20014;-79
2021/04/20 10:35:17;;;;;;;12.38;6.95;;;17.30;61.20;;;;;;6138581;23;20073;-79
2021/04/20 10:37:49;;;;;;;12.10;6.65;;;17.30;60.60;;;;;;6058203;23;20060;-76
2021/04/20 10:40:25;;;;;;;16.42;7.43;;;17.30;61.10;;;;;;6127117;23;20016;-77
2021/04/20 11:03:11;;;;;;;8.57;5.32;;;17.30;59.90;;;;;;5794447;24;20023;-78
2021/04/20 11:05:38;;;;;;;8.85;5.70;;;17.30;59.90;;;;;;5772042;24;20023;-78
2021/04/20 11:08:04;;;;;;;11.25;5.30;;;17.30;60.00;;;;;;5875075;24;20025;-78
2021/04/20 11:10:39;;;;;;;7.97;5.43;;;17.30;60.00;;;;;;6008317;23;20023;-78
2021/04/20 11:13:05;;;;;;;6.32;3.95;;;17.30;59.80;;;;;;6064801;23;20026;-79
2021/04/20 11:15:31;;;;;;;8.27;5.18;;;17.30;59.90;;;;;;6138829;23;20009;-78
2021/04/20 11:18:12;;;;;;;6.38;4.28;;;17.30;59.80;;;;;;6128438;23;20262;-78
2021/04/20 11:20:47;;;;;;;7.95;4.82;;;17.30;59.80;;;;;;6128579;23;20092;-77
2021/04/20 11:23:21;;;;;;;6.70;4.32;;;17.30;59.80;;;;;;6137117;23;20299;-77
2021/04/20 11:26:01;;;;;;;6.45;4.35;;;17.30;59.80;;;;;;6127652;23;20018;-79
2021/04/20 11:28:39;;;;;;;6.00;3.83;;;17.30;59.90;;;;;;6128096;23;20288;-78
2021/04/20 11:31:07;;;;;;;9.15;4.28;;;17.30;59.90;;;;;;6137347;23;20072;-78
2021/04/20 11:33:55;;;;;;;8.85;4.03;;;17.30;59.90;;;;;;6138257;23;20085;-79
2021/04/20 11:36:22;;;;;;;7.05;3.83;;;17.30;59.80;;;;;;6128100;23;20026;-79
2021/04/20 11:39:24;;;;;;;5.68;3.50;;;17.20;59.90;;;;;;6136376;23;20010;-78
2021/04/20 11:42:17;;;;;;;;;;;17.30;60.00;;;;;;6122035;23;20017;-81
2021/04/20 11:45:11;;;;;;;8.02;4.50;;;17.20;59.90;;;;;;6129107;23;19952;-79
2021/04/20 11:47:50;;;;;;;13.45;6.15;;;17.20;59.90;;;;;;6138281;23;20009;-74
2021/04/20 11:50:17;;;;;;;9.00;5.15;;;17.20;59.30;;;;;;6138051;23;20072;-76
2021/04/20 11:52:44;;;;;;;11.90;5.50;;;17.20;59.10;;;;;;6128287;23;20025;-78
2021/04/20 11:55:14;;;;;;;7.60;5.30;;;17.20;58.90;;;;;;6127533;23;20006;-78
2021/04/20 11:57:42;;;;;;;12.98;5.88;;;17.10;58.70;;;;;;6128290;23;20010;-78
2021/04/20 12:00:11;;;;;;;10.73;4.78;;;17.20;58.90;;;;;;6138322;23;20024;-79
2021/04/20 12:02:38;;;;;;;6.07;4.38;;;17.20;59.00;;;;;;6102758;23;20039;-78
2021/04/20 12:05:10;;;;;;;7.90;4.40;;;17.20;59.10;;;;;;6138431;23;20291;-77
2021/04/20 12:07:38;;;;;;;8.17;4.83;;;17.20;59.10;;;;;;6127865;23;20388;-79
2021/04/20 12:10:05;;;;;;;9.40;4.88;;;17.20;59.30;;;;;;6138914;23;20238;-77
2021/04/20 12:12:33;;;;;;;8.75;3.97;;;17.20;59.40;;;;;;6127116;23;20411;-79
2021/04/20 12:15:03;;;;;;;7.60;3.90;;;17.20;59.50;;;;;;6137651;23;20265;-79
2021/04/20 12:17:38;;;;;;;9.90;4.20;;;17.20;59.50;;;;;;6127297;23;20010;-78
2021/04/20 12:20:10;;;;;;;7.93;4.85;;;17.20;59.50;;;;;;6136730;23;20009;-78
2021/04/20 12:22:37;;;;;;;6.45;3.75;;;17.20;59.50;;;;;;6137199;23;20041;-78
2021/04/20 12:25:06;;;;;;;6.75;4.25;;;17.20;59.70;;;;;;6137041;23;20021;-78
2021/04/20 12:27:32;;;;;;;6.75;3.50;;;17.20;59.70;;;;;;6127738;23;20016;-78
2021/04/20 12:29:59;;;;;;;5.78;4.05;;;17.20;59.80;;;;;;6160886;23;20292;-77
2021/04/20 12:32:26;;;;;;;6.65;3.67;;;17.10;59.70;;;;;;6128239;23;20005;-78
2021/04/20 12:34:56;;;;;;;5.15;3.72;;;17.10;59.80;;;;;;6127394;23;20291;-78
2021/04/20 12:37:24;;;;;;;7.30;3.92;;;17.10;59.80;;;;;;6137098;23;20017;-78
2021/04/20 12:40:06;;;;;;;7.13;3.83;;;17.10;59.90;;;;;;6127130;23;20006;-79
2021/04/20 12:42:40;;;;;;;5.97;3.63;;;17.10;60.00;;;;;;6137119;23;20073;-77
2021/04/20 12:45:19;;;;;;;4.88;3.85;;;17.10;60.00;;;;;;6137090;23;20308;-78
2021/04/20 12:47:46;;;;;;;6.13;3.72;;;17.10;60.10;;;;;;6128206;23;20016;-78
2021/04/20 12:50:19;;;;;;;3.88;3.30;;;17.10;60.20;;;;;;6128648;23;20030;-78
2021/04/20 12:52:45;;;;;;;5.15;3.10;;;17.10;60.30;;;;;;6129052;23;20077;-78
2021/04/20 12:55:34;;;;;;;5.32;3.67;;;17.10;60.40;;;;;;6151591;23;20025;-77
2021/04/20 12:58:07;;;;;;;4.43;3.65;;;17.10;60.40;;;;;;6137936;23;20033;-78
2021/04/20 13:00:34;;;;;;;4.53;3.67;;;17.10;60.50;;;;;;6102315;23;20430;-78
2021/04/20 13:03:02;;;;;;;5.55;3.65;;;17.10;60.50;;;;;;6128305;23;20021;-78
2021/04/20 13:05:37;;;;;;;7.55;3.53;;;17.10;60.60;;;;;;6127097;23;20010;-79
2021/04/20 13:08:12;;;;;;;6.07;3.70;;;17.00;60.60;;;;;;6127450;23;20295;-78
2021/04/20 13:10:41;;;;;;;5.00;3.58;;;17.00;60.60;;;;;;6138008;23;20010;-77
2021/04/20 13:13:09;;;;;;;5.30;3.28;;;17.10;60.70;;;;;;6101925;23;20093;-78
2021/04/20 13:15:38;;;;;;;6.28;3.05;;;17.00;60.70;;;;;;6127134;23;20280;-77
2021/04/20 13:18:16;;;;;;;5.13;3.05;;;17.00;60.80;;;;;;6137595;23;20415;-77
2021/04/20 13:20:43;;;;;;;4.50;3.30;;;17.00;60.80;;;;;;6137027;23;20045;-77
2021/04/20 13:23:23;;;;;;;7.55;3.50;;;17.00;60.80;;;;;;6137415;23;20028;-77
2021/04/20 13:25:52;;;;;;;4.90;3.30;;;17.00;60.80;;;;;;6138518;23;20340;-79
2021/04/20 13:28:51;;;;;;;6.15;3.13;;;17.00;60.90;;;;;;6129134;23;20010;-78
2021/04/20 13:31:22;;;;;;;5.03;3.28;;;17.00;60.90;;;;;;6126104;23;20076;-77
2021/04/20 13:33:51;;;;;;;5.28;2.90;;;17.00;60.90;;;;;;6127037;23;20013;-77
2021/04/20 13:36:21;;;;;;;4.57;3.28;;;17.00;61.00;;;;;;6135808;23;20005;-78
2021/04/20 13:38:57;;;;;;;6.38;3.78;;;17.00;61.00;;;;;;6126869;23;20288;-78
2021/04/20 13:41:25;;;;;;;6.40;3.38;;;17.00;61.10;;;;;;6127830;23;20021;-78
2021/04/20 13:43:52;;;;;;;3.70;3.05;;;17.00;61.10;;;;;;6128310;23;20052;-77
2021/04/20 13:46:18;;;;;;;5.32;3.33;;;17.00;61.10;;;;;;6129920;23;20458;-77
2021/04/20 13:48:45;;;;;;;5.18;3.10;;;17.00;61.10;;;;;;6128870;23;20081;-78
2021/04/20 13:51:11;;;;;;;5.28;4.00;;;17.00;61.10;;;;;;6128567;23;20026;-78
2021/04/20 13:53:52;;;;;;;4.20;3.30;;;17.00;61.20;;;;;;6129177;23;20018;-79
2021/04/20 13:56:18;;;;;;;6.47;4.00;;;17.00;61.10;;;;;;6128475;23;20041;-77
2021/04/20 13:58:53;;;;;;;5.43;3.67;;;17.00;61.10;;;;;;6129032;23;20064;-77
2021/04/20 14:01:38;;;;;;;4.18;3.05;;;17.00;61.20;;;;;;6128117;23;20018;-77
2021/04/20 14:04:11;;;;;;;4.85;3.63;;;17.00;61.20;;;;;;6138469;23;20006;-78
2021/04/20 14:06:47;;;;;;;4.43;2.95;;;17.00;61.20;;;;;;6138632;23;20041;-78
2021/04/20 14:09:19;;;;;;;6.13;3.70;;;17.00;61.20;;;;;;6128621;23;20014;-77
2021/04/20 14:11:49;;;;;;;6.45;3.38;;;17.00;61.20;;;;;;6138743;23;20042;-77
2021/04/20 14:14:27;;;;;;;6.13;4.28;;;17.00;61.30;;;;;;6136809;23;20010;-78
2021/04/20 14:16:58;;;;;;;5.20;3.00;;;17.00;61.30;;;;;;6127874;23;20020;-76
2021/04/20 14:19:27;;;;;;;7.10;3.30;;;17.00;61.50;;;;;;6127294;23;20009;-78
2021/04/20 14:22:02;;;;;;;10.80;3.95;;;17.10;61.70;;;;;;6128128;23;20013;-77
2021/04/20 14:24:28;;;;;;;7.82;4.07;;;17.10;61.90;;;;;;6137127;23;20006;-80
2021/04/20 14:26:59;;;;;;;14.65;4.88;;;17.10;61.80;;;;;;6138294;23;20009;-79
2021/04/20 14:29:25;;;;;;;14.80;5.30;;;17.10;62.10;;;;;;6128837;23;20013;-76
2021/04/20 14:31:57;;;;;;;8.35;3.97;;;17.10;62.40;;;;;;6138633;23;20069;-77
2021/04/20 14:34:30;;;;;;;12.15;5.47;;;17.10;62.60;;;;;;6136870;23;20069;-77
2021/04/20 14:37:00;;;;;;;11.88;6.35;;;17.20;63.00;;;;;;6138324;23;20006;-77
2021/04/20 14:39:36;;;;;;;22.45;9.68;;;17.20;62.40;;;;;;6135980;23;20009;-83
2021/04/20 14:42:05;;;;;;;54.42;21.00;;;17.20;61.50;;;;;;6102908;23;20093;-76
2021/04/20 14:44:38;;;;;;;40.10;17.73;;;17.20;61.80;;;;;;6137365;23;20384;-76
2021/04/20 14:47:11;;;;;;;29.17;16.50;;;17.30;61.50;;;;;;6138662;23;20113;-79
2021/04/20 14:49:42;;;;;;;21.27;13.57;;;17.30;61.90;;;;;;6138758;23;20038;-76
2021/04/20 14:52:13;;;;;;;18.75;12.23;;;17.30;61.50;;;;;;6132572;23;20277;-74
2021/04/20 14:54:46;;;;;;;16.15;11.55;;;17.30;60.80;;;;;;6138808;23;20020;-77
2021/04/20 14:57:17;;;;;;;16.75;11.02;;;17.30;60.90;;;;;;6138719;23;20010;-78
2021/04/20 14:59:49;;;;;;;14.52;11.00;;;17.30;60.00;;;;;;6137086;23;20052;-77
2021/04/20 15:02:19;;;;;;;16.63;11.40;;;17.30;59.10;;;;;;6128042;23;20025;-79
2021/04/20 15:04:56;;;;;;;14.38;11.25;;;17.30;59.30;;;;;;6139034;23;20009;-78
2021/04/20 15:07:59;;;;;;;16.77;11.40;;;17.30;59.50;;;;;;6138142;23;20010;-78
2021/04/20 15:11:01;;;;;;;16.17;10.35;;;17.40;59.50;;;;;;6117153;23;20017;-77
2021/04/20 15:13:49;;;;;;;14.40;10.05;;;17.40;59.90;;;;;;6128393;23;20112;-75
2021/04/20 15:16:26;;;;;;;14.75;10.23;;;17.40;59.60;;;;;;6139264;23;20021;-78
2021/04/20 15:18:57;;;;;;;15.15;10.38;;;17.40;59.20;;;;;;6138700;23;20303;-76
2021/04/20 15:21:25;;;;;;;14.38;10.00;;;17.40;59.30;;;;;;6138848;23;20049;-77
2021/04/20 15:24:06;;;;;;;14.65;9.15;;;17.40;59.70;;;;;;6138665;23;20102;-76
2021/04/20 15:26:47;;;;;;;19.80;11.15;;;17.40;59.80;;;;;;6139237;23;20025;-79
2021/04/20 15:29:21;;;;;;;14.68;8.98;;;17.40;60.10;;;;;;6129003;23;20269;-77
2021/04/20 15:31:53;;;;;;;15.57;8.65;;;17.40;60.40;;;;;;6128868;23;20040;-77
2021/04/20 15:34:20;;;;;;;17.08;8.32;;;17.40;60.60;;;;;;6138829;23;20009;-80
2021/04/20 15:36:55;;;;;;;17.70;8.02;;;17.40;60.90;;;;;;6138591;23;20084;-79
2021/04/20 15:39:35;;;;;;;13.50;7.88;;;17.50;61.20;;;;;;6138202;23;20024;-79
2021/04/20 15:42:04;;;;;;;14.15;7.80;;;17.40;61.50;;;;;;6127931;23;20014;-78
2021/04/20 15:44:34;;;;;;;14.18;6.97;;;17.50;61.60;;;;;;6129831;23;20014;-78
2021/04/20 15:47:03;;;;;;;12.18;7.00;;;17.50;61.80;;;;;;6138165;23;20428;-77
2021/04/20 15:49:35;;;;;;;12.82;6.80;;;17.50;62.10;;;;;;6138846;23;20009;-77
2021/04/20 15:52:04;;;;;;;13.32;6.60;;;17.50;62.20;;;;;;6133298;23;20010;-77
2021/04/20 15:54:33;;;;;;;11.25;6.88;;;17.60;62.40;;;;;;6138995;23;20088;-76
2021/04/20 15:57:04;;;;;;;12.00;6.07;;;17.60;62.40;;;;;;6138555;23;20010;-76
2021/04/20 15:59:33;;;;;;;14.88;6.22;;;17.60;62.50;;;;;;6137665;23;20030;-77
2021/04/20 16:02:05;;;;;;;14.00;5.95;;;17.60;62.50;;;;;;6128605;23;20006;-76
2021/04/20 16:04:38;;;;;;;10.18;5.00;;;17.60;62.40;;;;;;6137020;23;20013;-75
2021/04/20 16:07:05;;;;;;;11.73;5.72;;;17.60;62.40;;;;;;6138634;23;20013;-77
2021/04/20 16:09:33;;;;;;;11.52;5.35;;;17.60;62.30;;;;;;6128486;23;20460;-76
2021/04/20 16:12:06;;;;;;;11.80;5.10;;;17.60;62.20;;;;;;6138429;23;20291;-77
2021/04/20 16:14:56;;;;;;;7.78;4.20;;;17.60;62.20;;;;;;6137650;23;20478;-77
2021/04/20 16:17:25;;;;;;;16.67;4.70;;;17.60;62.30;;;;;;6128290;23;20013;-79
2021/04/20 16:19:57;;;;;;;8.50;4.72;;;17.60;62.30;;;;;;6137352;23;20013;-80
2021/04/20 16:22:24;;;;;;;8.65;4.15;;;17.70;62.40;;;;;;6137747;23;20092;-80
2021/04/20 16:24:53;;;;;;;9.68;5.00;;;17.60;62.30;;;;;;6128378;23;20014;-79
2021/04/20 16:27:25;;;;;;;10.55;4.40;;;17.70;62.30;;;;;;6128405;23;20013;-80
2021/04/20 16:30:01;;;;;;;8.20;4.00;;;17.70;62.40;;;;;;6138099;23;20073;-79
2021/04/20 16:32:36;;;;;;;11.30;4.25;;;17.70;62.40;;;;;;6127992;23;20034;-76
2021/04/20 16:35:04;;;;;;;7.35;3.78;;;17.70;62.40;;;;;;6136837;23;20309;-77
2021/04/20 16:37:58;;;;;;;10.05;3.75;;;17.70;62.50;;;;;;6137558;23;20088;-78
2021/04/20 16:41:27;;;;;;;9.23;3.97;;;17.70;62.50;;;;;;6137187;23;20065;-78
2021/04/20 16:44:24;;;;;;;5.07;3.10;;;17.70;62.60;;;;;;6136782;23;20024;-76
2021/04/20 16:47:19;;;;;;;5.03;3.25;;;17.70;62.60;;;;;;6128347;23;20009;-77
2021/04/20 16:49:50;;;;;;;5.10;3.17;;;17.70;62.60;;;;;;6076497;23;20110;-77
2021/04/20 16:52:40;;;;;;;5.95;3.30;;;17.70;62.60;;;;;;6132491;23;20017;-76
2021/04/20 16:55:30;;;;;;;6.22;3.63;;;17.80;62.70;;;;;;6137832;23;20108;-76
2021/04/20 16:58:17;;;;;;;6.82;3.60;;;17.70;62.60;;;;;;6137826;23;20010;-75
2021/04/20 17:01:10;;;;;;;4.80;3.40;;;17.80;62.60;;;;;;6138375;23;20029;-76
2021/04/20 17:03:57;;;;;;;6.05;2.85;;;17.70;62.50;;;;;;6113281;23;20086;-75
2021/04/20 17:06:31;;;;;;;5.75;3.22;;;17.80;62.50;;;;;;6136561;23;20060;-77
2021/04/20 17:09:02;;;;;;;5.65;3.35;;;17.80;62.50;;;;;;6138384;23;20084;-77
2021/04/20 17:11:55;;;;;;;4.25;3.03;;;17.80;62.40;;;;;;6137376;23;20021;-76
2021/04/20 17:14:36;;;;;;;4.13;2.83;;;17.80;62.30;;;;;;6126837;23;20040;-76
2021/04/20 17:17:12;;;;;;;4.88;3.22;;;17.80;62.10;;;;;;6139487;23;20045;-77
2021/04/20 17:19:37;;;;;;;4.97;2.80;;;17.70;62.10;;;;;;6139151;23;20010;-76
2021/04/20 17:22:35;;;;;;;5.35;2.63;;;17.70;62.00;;;;;;6140061;23;20037;-76
2021/04/20 17:25:29;;;;;;;5.07;2.92;;;17.80;62.00;;;;;;6140288;23;20084;-76
2021/04/20 17:28:29;;;;;;;4.55;2.67;;;17.70;61.90;;;;;;6131077;23;20080;-77
2021/04/20 17:31:13;;;;;;;3.97;2.60;;;17.70;62.10;;;;;;6140688;23;20025;-77
2021/04/20 17:33:54;;;;;;;4.88;2.90;;;17.70;62.10;;;;;;6139887;23;20014;-76
2021/04/20 17:36:44;;;;;;;4.63;3.00;;;17.70;62.10;;;;;;6139529;23;20057;-76
2021/04/20 17:39:25;;;;;;;7.40;3.17;;;17.70;62.20;;;;;;6139375;23;20088;-77
2021/04/20 17:42:06;;;;;;;4.78;2.75;;;17.70;62.10;;;;;;6140116;23;20026;-76
2021/04/20 17:44:46;;;;;;;4.55;2.72;;;17.70;62.20;;;;;;6134843;23;20014;-75
2021/04/20 17:47:38;;;;;;;3.47;2.42;;;17.60;62.10;;;;;;6139847;23;20478;-77
2021/04/20 17:50:13;;;;;;;5.00;3.20;;;17.60;62.00;;;;;;6056718;23;20025;-76
2021/04/20 17:53:03;;;;;;;5.47;2.88;;;17.60;61.60;;;;;;6132622;23;20343;-76
2021/04/20 17:55:46;;;;;;;4.60;2.88;;;17.60;61.40;;;;;;6130128;23;20034;-76
2021/04/20 17:58:39;;;;;;;4.88;3.00;;;17.60;61.10;;;;;;6140000;23;20024;-76
2021/04/20 18:01:26;;;;;;;5.45;3.40;;;17.60;60.50;;;;;;6129763;23;20014;-77
2021/04/20 18:04:13;;;;;;;5.07;3.42;;;17.60;60.20;;;;;;6140499;23;20014;-77
2021/04/20 18:07:01;;;;;;;5.72;4.07;;;17.60;59.80;;;;;;6139311;23;20295;-76
2021/04/20 18:09:50;;;;;;;6.50;4.45;;;17.60;59.60;;;;;;6139723;23;20017;-75
2021/04/20 18:12:20;;;;;;;5.75;4.13;;;17.50;58.40;;;;;;6139401;23;20093;-75
2021/04/20 18:15:05;;;;;;;8.93;5.25;;;17.50;59.10;;;;;;6129195;23;20014;-77
2021/04/20 18:17:46;;;;;;;8.70;4.65;;;17.50;57.90;;;;;;6128737;23;20018;-77
2021/04/20 18:20:18;;;;;;;6.60;5.07;;;17.50;58.60;;;;;;6139030;23;20355;-76
2021/04/20 18:23:06;;;;;;;7.22;5.85;;;17.50;59.20;;;;;;6139256;23;20024;-77
2021/04/20 18:25:44;;;;;;;7.53;5.00;;;17.40;58.70;;;;;;6139259;23;20013;-79
2021/04/20 18:28:31;;;;;;;6.65;4.72;;;17.40;58.90;;;;;;6138308;23;20068;-77
2021/04/20 18:31:20;;;;;;;7.07;4.50;;;17.40;58.90;;;;;;6128500;23;20013;-77
2021/04/20 18:34:23;;;;;;;6.72;5.20;;;17.40;58.80;;;;;;6139542;23;20040;-78
2021/04/20 18:36:55;;;;;;;6.55;4.85;;;17.40;59.00;;;;;;6139484;23;20021;-76
2021/04/20 18:39:47;;;;;;;8.40;4.90;;;17.30;59.10;;;;;;6138733;23;20013;-79
2021/04/20 18:42:51;;;;;;;6.68;4.82;;;17.40;58.90;;;;;;6116977;23;20014;-77
2021/04/20 18:45:52;;;;;;;6.30;3.53;;;17.30;58.60;;;;;;6139012;23;20300;-77
2021/04/20 18:48:36;;;;;;;6.93;5.28;;;17.30;59.40;;;;;;6116798;23;20025;-78
2021/04/20 18:51:29;;;;;;;7.63;5.13;;;17.30;59.20;;;;;;6137209;23;20411;-76
2021/04/20 18:54:21;;;;;;;11.38;5.57;;;17.30;59.00;;;;;;6139240;23;20013;-77
2021/04/20 18:56:52;;;;;;;8.13;4.85;;;17.20;58.90;;;;;;6129193;23;20014;-77
2021/04/20 19:00:08;;;;;;;8.63;4.50;;;17.20;59.50;;;;;;6130595;23;20032;-76
2021/04/20 19:02:43;;;;;;;7.38;4.72;;;17.20;59.50;;;;;;6079408;23;20014;-77
2021/04/20 19:05:38;;;;;;;13.10;5.32;;;17.20;59.70;;;;;;6128864;23;20014;-77
2021/04/20 19:08:26;;;;;;;11.43;5.65;;;17.20;59.90;;;;;;6128867;23;20017;-76
2021/04/20 19:10:55;;;;;;;21.55;7.13;;;17.20;60.10;;;;;;6138335;23;20014;-76
2021/04/20 19:13:47;;;;;;;21.38;6.30;;;17.20;60.80;;;;;;6138831;23;20024;-75
2021/04/20 19:16:50;;;;;;;14.55;6.57;;;17.20;63.00;;;;;;6138985;23;20018;-78
2021/04/20 19:19:22;;;;;;;17.85;6.60;;;17.20;64.20;;;;;;6138589;23;20017;-78
2021/04/20 19:22:10;;;;;;;19.50;6.78;;;17.20;65.00;;;;;;6139693;23;20021;-75
2021/04/20 19:25:00;;;;;;;14.65;8.23;;;17.20;65.90;;;;;;6138763;23;20010;-77
2021/04/20 19:28:09;;;;;;;13.02;8.07;;;17.20;63.00;;;;;;6138788;23;20014;-76